Time;durP1;ratioP1;P1;durP2;ratioP2;P2;SDS_P1;SDS_P2;PMS_P1;PMS_P2;Temp;Humidity;BMP_temperature;BMP_pressure;BME280_temperature;BME280_humidity;BME280_pressure;Samples;Min_cycle;Max_cycle;Signal;HPM_P1;HPM_P2
2021/11/13 00:01:03;;;;;;;0.20;0.20;;;;;;;;;;5056975;28;20245;-68
2021/11/13 00:03:29;;;;;;;0.20;0.20;;;;;;;;;;5054450;28;20237;-67
2021/11/13 00:05:55;;;;;;;0.20;0.20;;;;;;;;;;5045833;28;20251;-68
2021/11/13 00:08:21;;;;;;;0.57;0.57;;;;;;;;;;5049537;28;20248;-68
2021/11/13 00:10:50;;;;;;;14.73;4.90;;;;;;;;;;5047126;28;20214;-67
2021/11/13 00:13:16;;;;;;;0.20;0.20;;;;;;;;;;5058369;28;20271;-67
2021/11/13 00:15:42;;;;;;;6.23;2.33;;;;;;;;;;5055438;28;20531;-68
2021/11/13 00:18:09;;;;;;;0.20;0.20;;;;;;;;;;5048315;28;20201;-68
2021/11/13 00:20:36;;;;;;;0.20;0.20;;;;;;;;;;5056334;28;20423;-68
2021/11/13 00:23:02;;;;;;;0.20;0.20;;;;;;;;;;5049015;28;20591;-68
2021/11/13 00:25:29;;;;;;;0.30;0.30;;;;;;;;;;5046619;28;20550;-68
2021/11/13 00:27:56;;;;;;;0.30;0.30;;;;;;;;;;5042156;28;20244;-68
2021/11/13 00:30:23;;;;;;;0.30;0.30;;;;;;;;;;5048679;28;20205;-67
2021/11/13 00:32:49;;;;;;;0.10;0.10;;;;;;;;;;5054960;28;20216;-68
2021/11/13 00:35:15;;;;;;;8.37;5.30;;;;;;;;;;5056913;28;20246;-67
2021/11/13 00:37:42;;;;;;;0.30;0.30;;;;;;;;;;5056627;28;20259;-67
2021/11/13 00:40:11;;;;;;;0.20;0.20;;;;;;;;;;5055937;28;20257;-67
2021/11/13 00:42:37;;;;;;;0.20;0.20;;;;;;;;;;5051898;28;20205;-67
2021/11/13 00:45:05;;;;;;;0.20;0.20;;;;;;;;;;5047430;28;20225;-68
2021/11/13 00:47:31;;;;;;;4.33;1.90;;;;;;;;;;5053187;28;20247;-68
2021/11/13 00:49:57;;;;;;;0.30;0.30;;;;;;;;;;5045940;28;20446;-69
2021/11/13 00:52:24;;;;;;;0.20;0.20;;;;;;;;;;5050694;28;20430;-68
2021/11/13 00:54:50;;;;;;;0.10;0.10;;;;;;;;;;5057784;28;20506;-67
2021/11/13 00:57:16;;;;;;;0.20;0.20;;;;;;;;;;5056367;28;20207;-68
2021/11/13 00:59:42;;;;;;;0.20;0.20;;;;;;;;;;5046513;28;20236;-69
2021/11/13 01:02:10;;;;;;;0.50;0.50;;;;;;;;;;5049950;28;20289;-68
2021/11/13 01:04:36;;;;;;;0.23;0.23;;;;;;;;;;5061880;28;20237;-68
2021/11/13 01:07:03;;;;;;;0.50;0.50;;;;;;;;;;5047635;28;20206;-68
2021/11/13 01:09:30;;;;;;;0.33;0.33;;;;;;;;;;5050052;28;20260;-68
2021/11/13 01:11:57;;;;;;;3.20;1.60;;;;;;;;;;5047755;28;20201;-68
2021/11/13 01:14:23;;;;;;;0.20;0.20;;;;;;;;;;5051659;28;20209;-68
2021/11/13 01:16:50;;;;;;;0.20;0.20;;;;;;;;;;5054142;28;20246;-68
2021/11/13 01:19:17;;;;;;;0.20;0.20;;;;;;;;;;5051316;28;20496;-67
2021/11/13 01:21:44;;;;;;;0.20;0.20;;;;;;;;;;5055844;28;20262;-68
2021/11/13 01:24:10;;;;;;;1.87;1.87;;;;;;;;;;5056073;28;20218;-67
2021/11/13 01:26:37;;;;;;;0.20;0.20;;;;;;;;;;5057564;28;20216;-67
2021/11/13 01:29:03;;;;;;;7.80;5.10;;;;;;;;;;5055085;28;20415;-66
2021/11/13 01:31:30;;;;;;;0.40;0.40;;;;;;;;;;5053823;28;20248;-67
2021/11/13 01:33:57;;;;;;;0.33;0.33;;;;;;;;;;5044735;28;20198;-68
2021/11/13 01:36:25;;;;;;;2.07;1.97;;;;;;;;;;5042198;28;20263;-67
2021/11/13 01:38:51;;;;;;;0.20;0.20;;;;;;;;;;5050856;28;20217;-67
2021/11/13 01:41:18;;;;;;;0.20;0.20;;;;;;;;;;5055644;28;20480;-68
2021/11/13 01:43:44;;;;;;;0.10;0.10;;;;;;;;;;5047779;28;20336;-68
2021/11/13 01:46:11;;;;;;;0.30;0.30;;;;;;;;;;5052589;28;20386;-68
2021/11/13 01:48:38;;;;;;;0.30;0.30;;;;;;;;;;5045960;28;20202;-67
2021/11/13 01:51:14;;;;;;;0.17;0.17;;;;;;;;;;5045607;28;20210;-68
2021/11/13 01:53:44;;;;;;;1.60;1.50;;;;;;;;;;5063343;28;20274;-68
2021/11/13 01:56:16;;;;;;;1.43;1.33;;;;;;;;;;5065534;28;20208;-69
2021/11/13 01:58:42;;;;;;;0.20;0.20;;;;;;;;;;5061135;28;20270;-68
2021/11/13 02:01:08;;;;;;;0.20;0.20;;;;;;;;;;5048421;28;20201;-68
2021/11/13 02:03:34;;;;;;;0.20;0.20;;;;;;;;;;5064674;28;20229;-67
2021/11/13 02:06:00;;;;;;;0.30;0.30;;;;;;;;;;5065262;28;20392;-68
2021/11/13 02:08:27;;;;;;;0.53;0.53;;;;;;;;;;5050280;28;20255;-68
2021/11/13 02:10:54;;;;;;;0.20;0.20;;;;;;;;;;5050341;28;20258;-68
2021/11/13 02:13:21;;;;;;;0.20;0.20;;;;;;;;;;5047709;28;20210;-68
2021/11/13 02:15:47;;;;;;;0.20;0.20;;;;;;;;;;5060363;28;20206;-68
2021/11/13 02:18:13;;;;;;;0.20;0.20;;;;;;;;;;5053926;28;20553;-68
2021/11/13 02:20:41;;;;;;;0.30;0.30;;;;;;;;;;5058897;28;20383;-68
2021/11/13 02:23:09;;;;;;;0.20;0.20;;;;;;;;;;5053137;28;20208;-68
2021/11/13 02:25:35;;;;;;;0.20;0.20;;;;;;;;;;5044768;28;20268;-68
2021/11/13 02:28:02;;;;;;;0.20;0.20;;;;;;;;;;5054333;28;20550;-68
2021/11/13 02:30:29;;;;;;;0.60;0.60;;;;;;;;;;5058510;28;20247;-68
2021/11/13 02:32:56;;;;;;;0.20;0.20;;;;;;;;;;5058447;28;20202;-67
2021/11/13 02:35:24;;;;;;;0.20;0.20;;;;;;;;;;5044660;28;20507;-68
2021/11/13 02:37:51;;;;;;;0.83;0.83;;;;;;;;;;5057028;28;20202;-68
2021/11/13 02:40:21;;;;;;;0.20;0.20;;;;;;;;;;5057814;28;20209;-67
2021/11/13 02:42:47;;;;;;;3.37;1.63;;;;;;;;;;5052766;28;20202;-67
2021/11/13 02:45:14;;;;;;;6.70;4.23;;;;;;;;;;5058630;28;20231;-67
2021/11/13 02:47:41;;;;;;;0.20;0.20;;;;;;;;;;5045652;28;20206;-67
2021/11/13 02:50:09;;;;;;;0.80;0.80;;;;;;;;;;5055604;28;20209;-67
2021/11/13 02:52:41;;;;;;;1.13;1.13;;;;;;;;;;5052073;28;20200;-69
2021/11/13 02:55:10;;;;;;;2.87;2.77;;;;;;;;;;5047449;28;20202;-68
2021/11/13 02:57:37;;;;;;;2.07;2.00;;;;;;;;;;5044225;28;20210;-68
2021/11/13 03:00:04;;;;;;;0.20;0.20;;;;;;;;;;5043821;28;20210;-68
2021/11/13 03:02:31;;;;;;;0.20;0.20;;;;;;;;;;5056552;28;20209;-68
2021/11/13 03:04:57;;;;;;;0.20;0.20;;;;;;;;;;5046056;28;20579;-68
2021/11/13 03:07:23;;;;;;;0.20;0.20;;;;;;;;;;5044074;28;20206;-67
2021/11/13 03:09:50;;;;;;;0.20;0.20;;;;;;;;;;5056318;28;20201;-68
2021/11/13 03:12:18;;;;;;;1.17;1.17;;;;;;;;;;5046065;28;20204;-68
2021/11/13 03:14:45;;;;;;;0.30;0.30;;;;;;;;;;5043642;28;20212;-68
2021/11/13 03:17:12;;;;;;;0.20;0.20;;;;;;;;;;5043929;28;20264;-68
2021/11/13 03:19:38;;;;;;;0.30;0.30;;;;;;;;;;5055210;28;20201;-68
2021/11/13 03:22:05;;;;;;;0.40;0.40;;;;;;;;;;5048323;28;20243;-68
2021/11/13 03:24:31;;;;;;;0.77;0.77;;;;;;;;;;5053178;28;20536;-68
2021/11/13 03:26:59;;;;;;;0.20;0.20;;;;;;;;;;5055586;28;20248;-67
2021/11/13 03:29:29;;;;;;;0.27;0.27;;;;;;;;;;5063249;28;20211;-68
2021/11/13 03:31:56;;;;;;;0.20;0.20;;;;;;;;;;5058247;28;20342;-68
2021/11/13 03:34:22;;;;;;;0.10;0.10;;;;;;;;;;5061169;28;20201;-68
2021/11/13 03:36:49;;;;;;;0.20;0.20;;;;;;;;;;5063222;28;20503;-68
2021/11/13 03:39:15;;;;;;;0.50;0.50;;;;;;;;;;5063330;28;20211;-67
2021/11/13 03:41:42;;;;;;;7.73;0.63;;;;;;;;;;5062739;28;20255;-68
2021/11/13 03:44:08;;;;;;;0.20;0.20;;;;;;;;;;5062254;28;20595;-68
2021/11/13 03:46:35;;;;;;;0.30;0.30;;;;;;;;;;5063016;28;20243;-67
2021/11/13 03:49:02;;;;;;;0.83;0.83;;;;;;;;;;5063134;28;20204;-68
2021/11/13 03:51:28;;;;;;;1.13;1.13;;;;;;;;;;5062905;28;20371;-68
2021/11/13 03:53:54;;;;;;;0.20;0.20;;;;;;;;;;5062966;28;20204;-67
2021/11/13 03:56:21;;;;;;;0.10;0.10;;;;;;;;;;5063124;28;20265;-67
2021/11/13 03:58:47;;;;;;;0.30;0.30;;;;;;;;;;5063062;28;20550;-67
2021/11/13 04:01:13;;;;;;;0.20;0.20;;;;;;;;;;5062607;28;20204;-68
2021/11/13 04:03:41;;;;;;;0.10;0.10;;;;;;;;;;5062358;28;20291;-67
2021/11/13 04:06:07;;;;;;;0.20;0.20;;;;;;;;;;5062624;28;20241;-68
2021/11/13 04:08:33;;;;;;;0.57;0.57;;;;;;;;;;5062649;28;20387;-68
2021/11/13 04:10:59;;;;;;;0.10;0.10;;;;;;;;;;5062914;28;20503;-69
2021/11/13 04:13:26;;;;;;;1.30;0.50;;;;;;;;;;5062388;28;20201;-68
2021/11/13 04:15:52;;;;;;;2.00;1.90;;;;;;;;;;5062790;28;20222;-67
2021/11/13 04:18:18;;;;;;;0.20;0.20;;;;;;;;;;5062223;28;20207;-68
2021/11/13 04:20:46;;;;;;;1.07;1.07;;;;;;;;;;5062808;28;20506;-68
2021/11/13 04:23:12;;;;;;;0.20;0.20;;;;;;;;;;5062858;28;20554;-68
2021/11/13 04:25:38;;;;;;;1.43;1.43;;;;;;;;;;5062341;28;20224;-67
2021/11/13 04:28:05;;;;;;;0.20;0.20;;;;;;;;;;5062892;28;20204;-67
2021/11/13 04:30:31;;;;;;;0.20;0.20;;;;;;;;;;5062265;28;20201;-68
2021/11/13 04:32:57;;;;;;;0.30;0.30;;;;;;;;;;5062593;28;20270;-67
2021/11/13 04:35:34;;;;;;;0.40;0.40;;;;;;;;;;5062524;28;20244;-67
2021/11/13 04:38:02;;;;;;;0.43;0.43;;;;;;;;;;5062642;28;20263;-66
2021/11/13 04:40:31;;;;;;;0.10;0.10;;;;;;;;;;5062514;28;20215;-68
2021/11/13 04:42:57;;;;;;;0.87;0.63;;;;;;;;;;5062309;28;20201;-67
2021/11/13 04:45:23;;;;;;;0.23;0.23;;;;;;;;;;5062151;28;20266;-67
2021/11/13 04:47:50;;;;;;;0.20;0.20;;;;;;;;;;5062431;28;20248;-67
2021/11/13 04:50:17;;;;;;;2.90;2.00;;;;;;;;;;5062563;28;20205;-68
2021/11/13 04:52:43;;;;;;;0.10;0.10;;;;;;;;;;5062259;28;20202;-68
2021/11/13 04:55:11;;;;;;;0.30;0.30;;;;;;;;;;5062195;28;20238;-68
2021/11/13 04:57:38;;;;;;;4.10;3.97;;;;;;;;;;5062232;28;20398;-68
2021/11/13 05:00:05;;;;;;;0.10;0.10;;;;;;;;;;5061984;28;20223;-67
2021/11/13 05:02:31;;;;;;;0.20;0.20;;;;;;;;;;5062077;28;20205;-68
2021/11/13 05:04:58;;;;;;;0.20;0.20;;;;;;;;;;5061557;28;20229;-68
2021/11/13 05:07:24;;;;;;;0.20;0.20;;;;;;;;;;5062326;28;20549;-67
2021/11/13 05:09:50;;;;;;;0.20;0.20;;;;;;;;;;5061931;28;20206;-68
2021/11/13 05:12:18;;;;;;;0.20;0.20;;;;;;;;;;5061960;28;20204;-68
2021/11/13 05:14:45;;;;;;;0.20;0.20;;;;;;;;;;5062258;28;20204;-67
2021/11/13 05:17:11;;;;;;;1.13;1.13;;;;;;;;;;5065771;28;20230;-68
2021/11/13 05:19:37;;;;;;;0.20;0.20;;;;;;;;;;5065654;28;20281;-67
2021/11/13 05:22:04;;;;;;;0.10;0.10;;;;;;;;;;5065980;28;20500;-67
2021/11/13 05:24:30;;;;;;;0.20;0.20;;;;;;;;;;5065568;28;20231;-67
2021/11/13 05:26:57;;;;;;;1.47;1.47;;;;;;;;;;5065637;28;20202;-67
2021/11/13 05:29:24;;;;;;;0.20;0.20;;;;;;;;;;5065959;28;20205;-68
2021/11/13 05:31:50;;;;;;;0.30;0.30;;;;;;;;;;5065459;28;20209;-67
2021/11/13 05:34:17;;;;;;;0.97;0.97;;;;;;;;;;5063986;28;20204;-68
2021/11/13 05:36:45;;;;;;;0.20;0.20;;;;;;;;;;5065895;28;20434;-68
2021/11/13 05:39:11;;;;;;;0.20;0.20;;;;;;;;;;5065325;28;20274;-68
2021/11/13 05:41:37;;;;;;;0.20;0.20;;;;;;;;;;5065698;28;20201;-68
2021/11/13 05:44:04;;;;;;;0.43;0.43;;;;;;;;;;5065250;28;20204;-68
2021/11/13 05:46:31;;;;;;;0.10;0.10;;;;;;;;;;5065584;28;20299;-68
2021/11/13 05:48:57;;;;;;;0.20;0.20;;;;;;;;;;5065388;28;20431;-68
2021/11/13 05:51:24;;;;;;;0.20;0.20;;;;;;;;;;5065627;28;20206;-68
2021/11/13 05:53:50;;;;;;;0.43;0.43;;;;;;;;;;5065253;28;20205;-68
2021/11/13 05:56:16;;;;;;;0.20;0.20;;;;;;;;;;5064380;28;20198;-68
2021/11/13 05:58:42;;;;;;;0.20;0.20;;;;;;;;;;5065294;28;20492;-68
2021/11/13 06:01:09;;;;;;;0.23;0.23;;;;;;;;;;5065067;28;20496;-68
2021/11/13 06:03:36;;;;;;;0.20;0.20;;;;;;;;;;5064844;28;20470;-69
2021/11/13 06:06:03;;;;;;;0.20;0.20;;;;;;;;;;5065112;28;20524;-68
2021/11/13 06:08:29;;;;;;;0.20;0.20;;;;;;;;;;5064921;28;20512;-67
2021/11/13 06:10:58;;;;;;;0.20;0.20;;;;;;;;;;5065019;28;20206;-68
2021/11/13 06:13:24;;;;;;;0.27;0.27;;;;;;;;;;5064922;28;20530;-67
2021/11/13 06:15:50;;;;;;;0.27;0.27;;;;;;;;;;5064713;28;20197;-67
2021/11/13 06:18:17;;;;;;;0.20;0.20;;;;;;;;;;5064683;28;20334;-68
2021/11/13 06:20:44;;;;;;;0.63;0.63;;;;;;;;;;5064529;28;20205;-68
2021/11/13 06:23:11;;;;;;;0.20;0.20;;;;;;;;;;5064744;28;20256;-68
2021/11/13 06:25:37;;;;;;;0.13;0.13;;;;;;;;;;5064570;28;20221;-68
2021/11/13 06:28:04;;;;;;;0.90;0.90;;;;;;;;;;5064189;28;20251;-68
2021/11/13 06:30:30;;;;;;;0.77;0.77;;;;;;;;;;5064821;28;20503;-66
2021/11/13 06:32:56;;;;;;;0.10;0.10;;;;;;;;;;5064585;28;20248;-68
2021/11/13 06:35:23;;;;;;;0.20;0.20;;;;;;;;;;5064887;28;20201;-68
2021/11/13 06:37:50;;;;;;;0.47;0.47;;;;;;;;;;5064417;28;20315;-67
2021/11/13 06:40:18;;;;;;;0.20;0.20;;;;;;;;;;5064241;28;20210;-68
2021/11/13 06:42:44;;;;;;;3.50;3.40;;;;;;;;;;5064315;28;20203;-68
2021/11/13 06:45:12;;;;;;;2.47;2.30;;;;;;;;;;5063059;28;20286;-68
2021/11/13 06:47:38;;;;;;;0.20;0.20;;;;;;;;;;5064311;28;20224;-67
2021/11/13 06:50:06;;;;;;;0.20;0.20;;;;;;;;;;5064464;28;20204;-68
2021/11/13 06:52:32;;;;;;;2.10;2.00;;;;;;;;;;5064265;28;20586;-67
2021/11/13 06:55:00;;;;;;;0.20;0.20;;;;;;;;;;5064280;28;20423;-67
2021/11/13 06:57:26;;;;;;;0.20;0.20;;;;;;;;;;5073077;28;20205;-67
2021/11/13 06:59:52;;;;;;;4.37;4.07;;;;;;;;;;5059719;28;20206;-68
2021/11/13 07:02:18;;;;;;;0.10;0.10;;;;;;;;;;5056853;28;20208;-68
2021/11/13 07:04:45;;;;;;;0.20;0.20;;;;;;;;;;5064820;28;20555;-67
2021/11/13 07:07:11;;;;;;;0.20;0.20;;;;;;;;;;5053885;28;20210;-68
2021/11/13 07:09:38;;;;;;;1.27;1.27;;;;;;;;;;5062521;28;20227;-68
2021/11/13 07:12:06;;;;;;;0.23;0.23;;;;;;;;;;5063276;28;20243;-70
2021/11/13 07:14:32;;;;;;;0.20;0.20;;;;;;;;;;5050760;28;20496;-69
2021/11/13 07:16:58;;;;;;;0.20;0.20;;;;;;;;;;5054611;28;20206;-68
2021/11/13 07:19:24;;;;;;;0.97;0.97;;;;;;;;;;5048897;28;20249;-68
2021/11/13 07:21:51;;;;;;;0.27;0.27;;;;;;;;;;5057701;28;20248;-69
2021/11/13 07:24:17;;;;;;;0.20;0.20;;;;;;;;;;5050417;28;20204;-69
2021/11/13 07:26:43;;;;;;;20.07;2.43;;;;;;;;;;5051573;28;20224;-68
2021/11/13 07:29:13;;;;;;;3.10;2.90;;;;;;;;;;5052454;28;20481;-69
2021/11/13 07:31:39;;;;;;;0.20;0.20;;;;;;;;;;5060669;28;20206;-68
2021/11/13 07:34:05;;;;;;;0.30;0.30;;;;;;;;;;5052600;28;20426;-69
2021/11/13 07:36:32;;;;;;;0.20;0.20;;;;;;;;;;5044317;28;20224;-67
2021/11/13 07:38:58;;;;;;;0.10;0.10;;;;;;;;;;5049682;28;20209;-68
2021/11/13 07:41:25;;;;;;;2.47;2.37;;;;;;;;;;5057943;28;20244;-68
2021/11/13 07:43:51;;;;;;;0.20;0.20;;;;;;;;;;5052569;28;20247;-68
2021/11/13 07:46:19;;;;;;;0.20;0.20;;;;;;;;;;5064283;28;20273;-68
2021/11/13 07:48:45;;;;;;;0.47;0.47;;;;;;;;;;5056987;28;20492;-68
2021/11/13 07:51:11;;;;;;;0.20;0.20;;;;;;;;;;5060531;28;20226;-68
2021/11/13 07:53:37;;;;;;;0.10;0.10;;;;;;;;;;5048448;28;20233;-68
2021/11/13 07:56:04;;;;;;;0.20;0.20;;;;;;;;;;5049623;28;20199;-67
2021/11/13 07:58:30;;;;;;;0.10;0.10;;;;;;;;;;5053471;28;20315;-68
2021/11/13 08:00:56;;;;;;;0.23;0.23;;;;;;;;;;5049161;28;20205;-68
2021/11/13 08:03:24;;;;;;;2.47;2.47;;;;;;;;;;5048157;28;20525;-68
2021/11/13 08:05:50;;;;;;;0.40;0.40;;;;;;;;;;5051482;28;20212;-67
2021/11/13 08:08:17;;;;;;;0.20;0.20;;;;;;;;;;5058351;28;20213;-67
2021/11/13 08:10:43;;;;;;;0.20;0.20;;;;;;;;;;5055892;28;20439;-68
2021/11/13 08:13:10;;;;;;;0.20;0.20;;;;;;;;;;5062204;28;20401;-65
2021/11/13 08:15:36;;;;;;;0.40;0.40;;;;;;;;;;5062437;28;20525;-67
2021/11/13 08:18:03;;;;;;;0.27;0.27;;;;;;;;;;5056972;28;20206;-69
2021/11/13 08:20:31;;;;;;;0.97;0.97;;;;;;;;;;5058250;28;20402;-68
2021/11/13 08:22:57;;;;;;;0.40;0.40;;;;;;;;;;5060564;28;20506;-69
2021/11/13 08:25:24;;;;;;;0.20;0.20;;;;;;;;;;5051054;28;20450;-70
2021/11/13 08:27:50;;;;;;;0.20;0.20;;;;;;;;;;5049563;28;20494;-68
2021/11/13 08:30:16;;;;;;;0.20;0.20;;;;;;;;;;5048253;28;20227;-69
2021/11/13 08:32:43;;;;;;;0.13;0.13;;;;;;;;;;5056448;28;20209;-69
2021/11/13 08:35:10;;;;;;;0.23;0.23;;;;;;;;;;5056470;28;20239;-69
2021/11/13 08:37:38;;;;;;;0.10;0.10;;;;;;;;;;5051060;28;20201;-68
2021/11/13 08:40:06;;;;;;;0.30;0.30;;;;;;;;;;5052877;28;20209;-70
2021/11/13 08:42:33;;;;;;;0.13;0.13;;;;;;;;;;5052864;28;20448;-69
2021/11/13 08:44:59;;;;;;;0.20;0.20;;;;;;;;;;5047880;28;20202;-69
2021/11/13 08:47:25;;;;;;;0.20;0.20;;;;;;;;;;5053627;28;20229;-70
2021/11/13 08:49:52;;;;;;;1.13;1.13;;;;;;;;;;5053089;28;20202;-69
2021/11/13 08:52:19;;;;;;;1.17;1.17;;;;;;;;;;5052189;28;20221;-69
2021/11/13 08:54:47;;;;;;;0.67;0.67;;;;;;;;;;5053175;28;20209;-68
2021/11/13 08:57:13;;;;;;;0.20;0.20;;;;;;;;;;5059299;28;20256;-68
2021/11/13 08:59:40;;;;;;;0.20;0.20;;;;;;;;;;5062609;28;20203;-69
2021/11/13 09:02:09;;;;;;;0.20;0.20;;;;;;;;;;5066347;28;20271;-68
2021/11/13 09:04:36;;;;;;;0.20;0.20;;;;;;;;;;5064575;28;20238;-68
2021/11/13 09:07:02;;;;;;;1.37;1.37;;;;;;;;;;5053758;28;20529;-69
2021/11/13 09:09:28;;;;;;;0.20;0.20;;;;;;;;;;5055280;28;20524;-69
2021/11/13 09:11:59;;;;;;;0.10;0.10;;;;;;;;;;5057538;28;20248;-69
2021/11/13 09:14:25;;;;;;;0.10;0.10;;;;;;;;;;5056909;28;20204;-69
2021/11/13 09:16:52;;;;;;;0.20;0.20;;;;;;;;;;5056700;28;20389;-68
2021/11/13 09:19:18;;;;;;;0.87;0.87;;;;;;;;;;5056883;28;20206;-68
2021/11/13 09:21:44;;;;;;;1.30;1.30;;;;;;;;;;5060528;28;20292;-68
2021/11/13 09:24:10;;;;;;;0.50;0.50;;;;;;;;;;5061790;28;20204;-68
2021/11/13 09:26:37;;;;;;;0.53;0.53;;;;;;;;;;5059841;28;20224;-68
2021/11/13 09:29:05;;;;;;;0.20;0.20;;;;;;;;;;5056790;28;20209;-68
2021/11/13 09:31:31;;;;;;;0.57;0.57;;;;;;;;;;5059667;28;20218;-68
2021/11/13 09:33:58;;;;;;;0.17;0.17;;;;;;;;;;5065470;28;20209;-67
2021/11/13 09:36:24;;;;;;;0.20;0.20;;;;;;;;;;5065644;28;20217;-68
2021/11/13 09:38:50;;;;;;;0.13;0.13;;;;;;;;;;5065719;28;20234;-68
2021/11/13 09:41:19;;;;;;;0.40;0.40;;;;;;;;;;5065320;28;20228;-67
2021/11/13 09:43:45;;;;;;;0.37;0.37;;;;;;;;;;5065495;28;20263;-68
2021/11/13 09:46:13;;;;;;;0.20;0.20;;;;;;;;;;5065201;28;20228;-68
2021/11/13 09:48:40;;;;;;;0.10;0.10;;;;;;;;;;5065669;28;20214;-68
2021/11/13 09:51:06;;;;;;;0.20;0.20;;;;;;;;;;5065616;28;20251;-68
2021/11/13 09:53:33;;;;;;;2.87;2.67;;;;;;;;;;5065034;28;20206;-68
2021/11/13 09:55:59;;;;;;;0.10;0.10;;;;;;;;;;5065585;28;20200;-67
2021/11/13 09:58:26;;;;;;;0.60;0.60;;;;;;;;;;5064714;28;20207;-68
2021/11/13 10:00:52;;;;;;;0.10;0.10;;;;;;;;;;5064520;28;20506;-68
2021/11/13 10:03:21;;;;;;;0.20;0.20;;;;;;;;;;5065102;28;20271;-67
2021/11/13 10:05:48;;;;;;;0.17;0.17;;;;;;;;;;5065257;28;20203;-68
2021/11/13 10:08:14;;;;;;;1.90;1.80;;;;;;;;;;5064871;28;20245;-67
2021/11/13 10:10:42;;;;;;;0.20;0.20;;;;;;;;;;5064816;28;20207;-68
2021/11/13 10:13:22;;;;;;;0.10;0.10;;;;;;;;;;5065005;28;20203;-68
2021/11/13 10:15:51;;;;;;;0.10;0.10;;;;;;;;;;5053543;28;20207;-69
2021/11/13 10:18:19;;;;;;;0.20;0.20;;;;;;;;;;5063248;28;20279;-68
2021/11/13 10:20:47;;;;;;;2.30;0.93;;;;;;;;;;5065150;28;20206;-68
2021/11/13 10:23:18;;;;;;;0.10;0.10;;;;;;;;;;5064925;28;20213;-69
2021/11/13 10:25:54;;;;;;;0.10;0.10;;;;;;;;;;5064833;28;20200;-68
2021/11/13 10:28:20;;;;;;;1.03;1.03;;;;;;;;;;5064783;28;20211;-68
2021/11/13 10:30:47;;;;;;;1.60;1.50;;;;;;;;;;5064519;28;20305;-67
2021/11/13 10:33:13;;;;;;;0.13;0.13;;;;;;;;;;5064515;28;20203;-68
2021/11/13 10:35:43;;;;;;;1.30;1.30;;;;;;;;;;5064727;28;20216;-67
2021/11/13 10:38:18;;;;;;;0.10;0.10;;;;;;;;;;5064329;28;20200;-68
2021/11/13 10:40:55;;;;;;;0.10;0.10;;;;;;;;;;5064647;28;20206;-68
2021/11/13 10:43:30;;;;;;;0.10;0.10;;;;;;;;;;5064603;28;20214;-68
2021/11/13 10:45:57;;;;;;;0.10;0.10;;;;;;;;;;5064627;28;20196;-70
2021/11/13 10:48:24;;;;;;;0.10;0.10;;;;;;;;;;5064607;28;20513;-67
2021/11/13 10:50:50;;;;;;;0.10;0.10;;;;;;;;;;5064494;28;20207;-67
2021/11/13 10:53:24;;;;;;;0.17;0.17;;;;;;;;;;5064650;28;20261;-68
2021/11/13 10:56:00;;;;;;;0.10;0.10;;;;;;;;;;5047702;28;20199;-60
2021/11/13 10:58:28;;;;;;;0.20;0.20;;;;;;;;;;5058578;28;20215;-61
2021/11/13 11:00:54;;;;;;;0.10;0.10;;;;;;;;;;5051750;28;20263;-60
2021/11/13 11:03:20;;;;;;;0.10;0.10;;;;;;;;;;5059280;28;20235;-60
2021/11/13 11:05:48;;;;;;;1.57;1.53;;;;;;;;;;5054292;28;20201;-61
2021/11/13 11:08:28;;;;;;;10.73;9.63;;;;;;;;;;5060064;28;20282;-62
2021/11/13 11:10:55;;;;;;;0.10;0.10;;;;;;;;;;5053133;28;20247;-58
2021/11/13 11:13:36;;;;;;;0.10;0.10;;;;;;;;;;5059129;28;20215;-61
2021/11/13 11:16:02;;;;;;;0.10;0.10;;;;;;;;;;5050738;28;20216;-60
2021/11/13 11:18:49;;;;;;;0.10;0.10;;;;;;;;;;5055806;28;20231;-60
2021/11/13 11:21:15;;;;;;;0.10;0.10;;;;;;;;;;5056242;28;20276;-61
2021/11/13 11:23:45;;;;;;;0.43;0.43;;;;;;;;;;5054068;28;20223;-60
2021/11/13 11:26:14;;;;;;;0.10;0.10;;;;;;;;;;5050508;28;20210;-61
2021/11/13 11:28:55;;;;;;;0.10;0.10;;;;;;;;;;5058258;28;20207;-61
2021/11/13 11:31:37;;;;;;;0.60;0.60;;;;;;;;;;5047552;28;20219;-61
2021/11/13 11:34:04;;;;;;;0.10;0.10;;;;;;;;;;5059138;28;20326;-61
2021/11/13 11:36:30;;;;;;;0.10;0.10;;;;;;;;;;5051557;28;20200;-60
2021/11/13 11:38:58;;;;;;;0.40;0.40;;;;;;;;;;5060849;28;20212;-61
2021/11/13 11:41:24;;;;;;;0.20;0.20;;;;;;;;;;5048696;28;20212;-61
2021/11/13 11:43:52;;;;;;;0.10;0.10;;;;;;;;;;5049611;28;20270;-60
2021/11/13 11:46:18;;;;;;;0.10;0.10;;;;;;;;;;5057774;28;20495;-61
2021/11/13 11:48:45;;;;;;;0.10;0.10;;;;;;;;;;5055824;28;20200;-60
2021/11/13 11:51:12;;;;;;;0.53;0.53;;;;;;;;;;5057411;28;20209;-61
2021/11/13 11:53:38;;;;;;;0.10;0.10;;;;;;;;;;5055315;28;20204;-61
2021/11/13 11:56:06;;;;;;;0.10;0.10;;;;;;;;;;5057837;28;20208;-61
2021/11/13 11:58:34;;;;;;;0.10;0.10;;;;;;;;;;5048086;28;20208;-61
2021/11/13 12:01:02;;;;;;;0.70;0.70;;;;;;;;;;5048817;28;20274;-62
2021/11/13 12:03:30;;;;;;;3.10;3.00;;;;;;;;;;5054774;28;20275;-61
2021/11/13 12:05:56;;;;;;;0.10;0.10;;;;;;;;;;5053593;28;20239;-69
2021/11/13 12:08:23;;;;;;;0.50;0.50;;;;;;;;;;5060605;28;20235;-69
2021/11/13 12:10:50;;;;;;;0.10;0.10;;;;;;;;;;5072282;28;20203;-69
2021/11/13 12:13:24;;;;;;;1.13;0.97;;;;;;;;;;5060515;28;20208;-68
2021/11/13 12:15:51;;;;;;;0.10;0.10;;;;;;;;;;5060780;28;20238;-68
2021/11/13 12:18:19;;;;;;;2.37;1.90;;;;;;;;;;5071186;28;20200;-69
2021/11/13 12:20:46;;;;;;;0.20;0.20;;;;;;;;;;5053419;28;20208;-68
2021/11/13 12:23:16;;;;;;;0.97;0.97;;;;;;;;;;5046571;28;20204;-68
2021/11/13 12:25:57;;;;;;;0.10;0.10;;;;;;;;;;5050703;28;20246;-67
2021/11/13 12:28:26;;;;;;;0.10;0.10;;;;;;;;;;5055599;28;20215;-68
2021/11/13 12:30:54;;;;;;;0.10;0.10;;;;;;;;;;5047454;28;20276;-68
2021/11/13 12:33:39;;;;;;;2.43;2.23;;;;;;;;;;5047390;28;20231;-68
2021/11/13 12:36:08;;;;;;;0.20;0.20;;;;;;;;;;5046172;28;20201;-68
2021/11/13 12:38:35;;;;;;;0.10;0.10;;;;;;;;;;5058798;28;20391;-68
2021/11/13 12:41:06;;;;;;;0.10;0.10;;;;;;;;;;5059610;28;20203;-68
2021/11/13 12:43:47;;;;;;;0.10;0.10;;;;;;;;;;5061573;28;20205;-68
2021/11/13 12:46:24;;;;;;;0.10;0.10;;;;;;;;;;5059044;28;20209;-68
2021/11/13 12:48:51;;;;;;;0.10;0.10;;;;;;;;;;5062079;28;20197;-67
2021/11/13 12:51:18;;;;;;;0.10;0.10;;;;;;;;;;5061936;28;20228;-66
2021/11/13 12:53:51;;;;;;;0.10;0.10;;;;;;;;;;5061888;28;20224;-69
2021/11/13 12:56:32;;;;;;;0.10;0.10;;;;;;;;;;5056680;28;20251;-68
2021/11/13 12:58:59;;;;;;;0.10;0.10;;;;;;;;;;5057815;28;20203;-66
2021/11/13 13:01:27;;;;;;;0.93;0.93;;;;;;;;;;5060639;28;20280;-67
2021/11/13 13:03:59;;;;;;;0.10;0.10;;;;;;;;;;5058620;28;20574;-67
2021/11/13 13:06:26;;;;;;;0.13;0.13;;;;;;;;;;5056788;28;20196;-68
2021/11/13 13:09:00;;;;;;;0.20;0.20;;;;;;;;;;5061859;28;20246;-68
2021/11/13 13:11:26;;;;;;;0.10;0.10;;;;;;;;;;5046784;28;20201;-68
2021/11/13 13:13:52;;;;;;;0.10;0.10;;;;;;;;;;5048972;28;20387;-68
2021/11/13 13:16:19;;;;;;;0.10;0.10;;;;;;;;;;5050729;28;20203;-67
2021/11/13 13:18:47;;;;;;;0.10;0.10;;;;;;;;;;5056623;28;20208;-67
2021/11/13 13:21:16;;;;;;;0.20;0.20;;;;;;;;;;5045785;28;20213;-67
2021/11/13 13:23:42;;;;;;;0.77;0.77;;;;;;;;;;5047048;28;20209;-68
2021/11/13 13:26:08;;;;;;;0.10;0.10;;;;;;;;;;5055951;28;20572;-68
2021/11/13 13:28:35;;;;;;;0.10;0.10;;;;;;;;;;5049166;28;20293;-67
2021/11/13 13:31:05;;;;;;;0.10;0.10;;;;;;;;;;5048185;28;20200;-68
2021/11/13 13:33:32;;;;;;;0.10;0.10;;;;;;;;;;5048242;28;20456;-67
2021/11/13 13:35:59;;;;;;;0.20;0.20;;;;;;;;;;5058966;28;20220;-67
2021/11/13 13:38:26;;;;;;;0.10;0.10;;;;;;;;;;5065330;28;20258;-67
2021/11/13 13:40:54;;;;;;;0.10;0.10;;;;;;;;;;5060257;28;20277;-67
2021/11/13 13:43:23;;;;;;;0.10;0.10;;;;;;;;;;5065150;28;20392;-69
2021/11/13 13:45:50;;;;;;;0.10;0.10;;;;;;;;;;5060360;28;20429;-68
2021/11/13 13:48:19;;;;;;;0.10;0.10;;;;;;;;;;5051525;28;20266;-69
2021/11/13 13:50:45;;;;;;;0.10;0.10;;;;;;;;;;5054837;28;20421;-69
2021/11/13 13:53:13;;;;;;;0.10;0.10;;;;;;;;;;5055607;28;20233;-69
2021/11/13 13:55:39;;;;;;;0.20;0.20;;;;;;;;;;5057399;28;20275;-69
2021/11/13 13:58:08;;;;;;;0.10;0.10;;;;;;;;;;5058780;28;20200;-69
2021/11/13 14:00:34;;;;;;;0.20;0.20;;;;;;;;;;5059210;28;20241;-68
2021/11/13 14:03:01;;;;;;;0.20;0.20;;;;;;;;;;5064259;28;20266;-65
2021/11/13 14:05:29;;;;;;;0.93;0.93;;;;;;;;;;5060862;28;20517;-68
2021/11/13 14:08:03;;;;;;;0.10;0.10;;;;;;;;;;5061975;28;20233;-68
2021/11/13 14:10:31;;;;;;;0.10;0.10;;;;;;;;;;5052183;28;20205;-67
2021/11/13 14:12:59;;;;;;;0.10;0.10;;;;;;;;;;5058008;28;20216;-67
2021/11/13 14:15:26;;;;;;;0.10;0.10;;;;;;;;;;5060189;28;20416;-67
2021/11/13 14:17:55;;;;;;;0.10;0.10;;;;;;;;;;5060853;28;20417;-67
2021/11/13 14:20:23;;;;;;;0.10;0.10;;;;;;;;;;5052790;28;20276;-68
2021/11/13 14:22:56;;;;;;;0.10;0.10;;;;;;;;;;5055944;28;20225;-69
2021/11/13 14:25:22;;;;;;;2.30;2.20;;;;;;;;;;5052526;28;20209;-69
2021/11/13 14:27:50;;;;;;;0.10;0.10;;;;;;;;;;5054617;28;20225;-69
2021/11/13 14:30:16;;;;;;;0.17;0.17;;;;;;;;;;5051339;28;20529;-69
2021/11/13 14:32:49;;;;;;;0.10;0.10;;;;;;;;;;5052924;28;20206;-69
2021/11/13 14:35:17;;;;;;;0.10;0.10;;;;;;;;;;5062329;28;20255;-68
2021/11/13 14:37:44;;;;;;;0.10;0.10;;;;;;;;;;5053462;28;20276;-69
2021/11/13 14:40:11;;;;;;;0.10;0.10;;;;;;;;;;5064695;28;20330;-68
2021/11/13 14:42:38;;;;;;;0.10;0.10;;;;;;;;;;5064480;28;20242;-68
2021/11/13 14:45:06;;;;;;;0.10;0.10;;;;;;;;;;5064537;28;20202;-68